< < Back
Terminal Aerodrome Forecast


Current Version              Previous Versions:   1  2  3  4  5  6  7  8  9  

Terminal Aerodrome Forecast

570
FTUS44 KMRX 251120
TAFCHA
TAF
KCHA 251120Z 2512/2612 00000KT P6SM SCT250
     FM251400 23003KT P6SM SCT045
     FM252000 26005KT P6SM VCTS BKN050CB
     FM260300 VRB02KT P6SM FEW080 FEW250=



Latest METAR

413
SAUS80 KWBC 260800 RRA
MTRCHA
METAR KCHA 260753Z AUTO 21004KT 10SM OVC120 26/22 A3004 RMK AO2 SLP162
T02610222


USA.gov is the U.S. government's official web portal to all federal, state and local government web resources and services.